Virgilina, Virginia
Current Conditions -  °F | °C
As of 12:15 PM on Sunday 21 Dec 2014 (Local Time) from KW78 Reporting Station
Overcast Overcast  
Wind Chill: 40°   Ceiling: 4200
Heat Index: 42°   Visibility: 10mi
Dew Point: 31°   Wind: 5mph
Humidity: 65%   Direction: 50°NE
Pressure: 30.3"   Gusts: NA
Location:  36.55°N, 78.77°W
Report Text: KW78 211715Z AUTO 05004KT 10SM OVC042 06/00 A3030 RMK AO1 T00581004
Loading
Personal Weather Stations






























Interactive Weather Map New forecast layout! Learn more

10-Day Weather Forecast

Advertisements
Track Severe Weather on mobile